MAPA DE AEROPUERTO

INFORMACIÓN METAR y TAF

METAR FOR LEVC
ADDS - METARS form results

(1112 UTC 05 August 2021)
Data provider http://aviationweather.gov/metar/data/
 
METAR text: LEVC 051100Z 12006KT 060V210 9999 FEW030 31/20 Q1014 NOSIG
Conditions at: LEVC (VALENCIA (CIV/MI, ES) observed 1100 UTC 05 August 2021
Temperature: 31.0°C (88°F)
Dewpoint: 20.0°C (68°F) [RH = 52%]
Pressure (altimeter): 29.94 inches Hg (1014.0 mb)
Winds: from the ESE (120 degrees) at 7 MPH (6 knots; 3.1 m/s)
Visibility: 6 or more miles (10+ km)
Ceiling: at least 12,000 feet AGL
Clouds: few clouds at 3000 feet AGL
Weather: no significant weather observed at this time

METAR text: LEVC 051030Z 14004KT 9999 FEW025 30/19 Q1015 NOSIG
Conditions at: LEVC (VALENCIA (CIV/MI, ES) observed 1030 UTC 05 August 2021
Temperature: 30.0°C (86°F)
Dewpoint: 19.0°C (66°F) [RH = 52%]
Pressure (altimeter): 29.97 inches Hg (1015.0 mb)
Winds: from the SE (140 degrees) at 5 MPH (4 knots; 2.1 m/s)
Visibility: 6 or more miles (10+ km)
Ceiling: at least 12,000 feet AGL
Clouds: few clouds at 2500 feet AGL
Weather: no significant weather observed at this time

Forecast for: LEVC (VALENCIA (CIV/MI, ES)
Text: TAF LEVC 050500Z 0506/0606 VRB04KT 9999 FEW030 TX31/0512Z TN20/0506Z
Forecast period: 0600 to 1100 UTC 05 August 2021
Forecast type: FROM: standard forecast or significant change
Winds: variable direction winds at 5 MPH (4 knots; 2.1 m/s)
Visibility: 6 or more miles (10+ km)
Ceiling: at least 12,000 feet AGL
Clouds: few clouds at 3000 feet AGL
Weather: no significant weather forecast for this period
Text: BECMG 0511/0513 12010KT
Forecast period: 1100 to 1700 UTC 05 August 2021
Forecast type: BECOMING: Conditions expected to become as follows by 1300 UTC 05 August 2021
Winds: from the ESE (120 degrees) at 12 MPH (10 knots; 5.1 m/s)
Visibility: 6 or more miles (10+ km)
Ceiling: at least 12,000 feet AGL
Clouds: few clouds at 3000 feet AGL
Weather: no significant weather forecast for this period
Text: BECMG 0517/0519 VRB04KT
Forecast period: 1700 UTC 05 August 2021 to 0600 UTC 06 August 2021
Forecast type: BECOMING: Conditions expected to become as follows by 1900 UTC 05 August 2021
Winds: variable direction winds at 5 MPH (4 knots; 2.1 m/s)
Visibility: 6 or more miles (10+ km)
Ceiling: at least 12,000 feet AGL
Clouds: few clouds at 3000 feet AGL
Weather: no significant weather forecast for this period